PROFILE

 METAR AND TAF INFORMATION
ADDS - METARS form results

(1212 UTC 26 March 2019)
http://aviationweather.gov/metar/data/
 
LFPO 261200Z 01006KT 300V110 9999 FEW043 11/02 Q1033 NOSIG
LFPO 261130Z 36008KT 320V050 9999 FEW041 11/01 Q1033 NOSIG
TAF LFPO 261100Z 2612/2718 02008KT 9999 BKN030 PROB30 TEMPO 2704/2706 4000 BR 

 AIRPORT MAP

 RUNWAY INFORMATION
Runway 02 Runway length 7874 ft Runway width 197 ft
Runway elevation 287 ft Runway displaced threshold 0 ft Runway heading 18
Runway 20 Runway length 7874 ft Runway width 197 ft
Runway elevation 287 ft Runway displaced threshold 0 ft Runway heading 198
Runway 06 Runway length 11975 ft Runway width 148 ft
Runway elevation 283 ft Runway displaced threshold 984 ft Runway heading 62
Runway 24 Runway length 11975 ft Runway width 148 ft
Runway elevation 284 ft Runway displaced threshold 0 ft Runway heading 242
Runway 08 Runway length 10892 ft Runway width 148 ft
Runway elevation 277 ft Runway displaced threshold 0 ft Runway heading 74
Runway 26 Runway length 10892 ft Runway width 148 ft
Runway elevation 287 ft Runway displaced threshold 1427 ft Runway heading 254

 AIRPORT FREQUENCIES
Type APP Name APP Frequency 123.875 MHZ
Type ATIS Name ATIS Frequency 131.35 MHZ
Type DEP Name DEP Frequency 127.75 MHZ
Type GND Name GND Frequency 121.7 MHZ
Type PFLT Name PREFLIGHT Frequency 121.05 MHZ
Type TWR Name TWR Frequency 118.7 MHZ

 AIRPORT NEAR NAVIGATION AIDS
Type VOR-DME Name Orly Frequency 111200 KHZ